Terminal Aerodrome Forecast
Issued by NWS Austin/San Antonio, TX

Current Version | Previous Version | Text Only | Print | Product List | Glossary On
Versions: 1 2 3 4 5 6 7 8 9 10 11 12 13 14 15 16 17 18 19 20 21
964
FTUS44 KEWX 272339
TAFAUS
TAF
KAUS 272339Z 2800/2906 16007KT P6SM SCT035
     FM280400 13006KT P6SM BKN025
     FM280530 15008KT P6SM OVC012
     FM280700 16008KT 4SM BR OVC007
     FM281800 17016G22KT P6SM OVC025
     FM282100 16021G28KT P6SM BKN050=

USA.gov is the U.S. government's official web portal to all federal, state and local government web resources and services.